Time;durP1;ratioP1;P1;durP2;ratioP2;P2;SDS_P1;SDS_P2;PMS_P1;PMS_P2;Temp;Humidity;BMP_temperature;BMP_pressure;BME280_temperature;BME280_humidity;BME280_pressure;Samples;Min_cycle;Max_cycle;Signal;HPM_P1;HPM_P2
2022/10/24 00:01:21;;;;;;;3.65;1.25;;;14.60;99.90;;;;;;4960142;28;20047;-84
2022/10/24 00:03:48;;;;;;;5.53;1.27;;;14.70;99.90;;;;;;4957158;28;20052;-84
2022/10/24 00:06:14;;;;;;;3.80;1.50;;;14.70;99.90;;;;;;4958666;28;20055;-82
2022/10/24 00:08:41;;;;;;;9.18;1.50;;;14.70;99.90;;;;;;4974993;28;20083;-83
2022/10/24 00:11:24;;;;;;;4.10;1.05;;;14.50;99.90;;;;;;4958559;28;20047;-83
2022/10/24 00:13:52;;;;;;;8.10;1.60;;;14.80;99.90;;;;;;4942738;28;20425;-84
2022/10/24 00:16:21;;;;;;;3.88;1.65;;;14.40;99.90;;;;;;4948643;28;20047;-84
2022/10/24 00:18:47;;;;;;;5.88;2.03;;;14.40;99.90;;;;;;4969011;28;20050;-83
2022/10/24 00:21:14;;;;;;;11.02;3.25;;;14.70;99.90;;;;;;4942840;29;20047;-82
2022/10/24 00:23:40;;;;;;;7.65;1.70;;;14.40;99.90;;;;;;4958092;29;20047;-81
2022/10/24 00:26:06;;;;;;;5.50;2.25;;;14.70;99.90;;;;;;4942523;28;20054;-83
2022/10/24 00:28:34;;;;;;;6.93;1.58;;;14.90;99.90;;;;;;4970376;28;20051;-83
2022/10/24 00:31:00;;;;;;;6.55;1.50;;;14.80;99.90;;;;;;4960361;28;20156;-84
2022/10/24 00:33:26;;;;;;;5.28;1.52;;;14.70;99.90;;;;;;4963125;28;20447;-84
2022/10/24 00:35:52;;;;;;;10.00;1.58;;;14.90;99.90;;;;;;4962613;28;20047;-84
2022/10/24 00:38:18;;;;;;;10.30;1.55;;;14.70;99.90;;;;;;4962281;29;20509;-84
2022/10/24 00:40:44;;;;;;;7.47;1.42;;;14.90;99.90;;;;;;4962640;28;20039;-83
2022/10/24 00:43:17;;;;;;;6.25;1.88;;;14.90;99.90;;;;;;4961018;28;20078;-83
2022/10/24 00:45:45;;;;;;;9.50;3.83;;;15.10;99.90;;;;;;4950562;28;20049;-83
2022/10/24 00:48:43;;;;;;;9.40;1.45;;;14.60;99.90;;;;;;4965450;28;20040;-81
2022/10/24 00:51:18;;;;;;;6.68;1.77;;;14.70;99.90;;;;;;4943209;28;20456;-83
2022/10/24 00:53:48;;;;;;;3.53;1.48;;;15.00;99.90;;;;;;4956332;29;20047;-81
2022/10/24 00:56:18;;;;;;;8.43;1.23;;;14.90;99.90;;;;;;4941516;29;20043;-82
2022/10/24 00:58:45;;;;;;;4.73;1.00;;;14.90;99.90;;;;;;4957914;29;20486;-82
2022/10/24 01:01:11;;;;;;;6.15;2.22;;;14.80;99.90;;;;;;4967085;28;20374;-83
2022/10/24 01:03:37;;;;;;;6.15;1.13;;;14.80;99.90;;;;;;4974987;28;20058;-82
2022/10/24 01:06:19;;;;;;;5.75;1.67;;;14.70;99.90;;;;;;4963472;28;20050;-78
2022/10/24 01:08:52;;;;;;;7.15;1.45;;;14.60;99.90;;;;;;4954768;28;20058;-81
2022/10/24 01:11:35;;;;;;;5.63;1.48;;;15.10;99.90;;;;;;4942364;29;20090;-82
2022/10/24 01:14:18;;;;;;;11.40;1.70;;;15.10;99.90;;;;;;4994360;23;20087;-83
2022/10/24 01:17:02;;;;;;;8.48;1.65;;;14.90;99.90;;;;;;4937239;29;20054;-81
2022/10/24 01:19:49;;;;;;;16.27;2.22;;;15.20;99.90;;;;;;4941418;29;20435;-78
2022/10/24 01:22:31;;;;;;;2.38;1.20;;;15.10;99.90;;;;;;4934751;29;20498;-82
2022/10/24 01:25:06;;;;;;;6.65;1.90;;;15.20;99.90;;;;;;4933287;29;20051;-78
2022/10/24 01:27:56;;;;;;;4.25;1.35;;;14.90;99.90;;;;;;4936834;29;20048;-83
2022/10/24 01:30:22;;;;;;;4.72;1.27;;;15.10;99.90;;;;;;4935240;29;20546;-82
2022/10/24 01:33:14;;;;;;;4.22;2.05;;;14.80;99.90;;;;;;4940001;29;20047;-83
2022/10/24 01:35:53;;;;;;;7.85;2.42;;;15.30;99.90;;;;;;4940460;29;20044;-79
2022/10/24 01:38:44;;;;;;;5.75;1.40;;;15.10;99.90;;;;;;4934574;29;20126;-83
2022/10/24 01:41:16;;;;;;;2.45;1.08;;;15.10;99.90;;;;;;4939656;29;20123;-84
2022/10/24 01:44:01;;;;;;;8.73;2.35;;;15.10;99.90;;;;;;4937650;29;20047;-77
2022/10/24 01:46:31;;;;;;;8.18;1.67;;;15.20;99.90;;;;;;4938135;29;20051;-78
2022/10/24 01:49:04;;;;;;;10.23;2.50;;;15.30;99.90;;;;;;4929585;29;20048;-83
2022/10/24 01:51:32;;;;;;;7.10;1.75;;;15.30;99.90;;;;;;4938780;29;20103;-82
2022/10/24 01:54:00;;;;;;;5.00;1.80;;;15.10;99.90;;;;;;4937992;29;20127;-83
2022/10/24 01:56:26;;;;;;;5.25;1.58;;;15.00;99.90;;;;;;4928868;29;20134;-84
2022/10/24 01:58:52;;;;;;;4.70;1.60;;;15.20;99.90;;;;;;4937398;29;20110;-83
2022/10/24 02:01:22;;;;;;;9.35;1.88;;;14.90;99.90;;;;;;4938268;29;20070;-82
2022/10/24 02:04:04;;;;;;;4.68;1.90;;;15.10;99.90;;;;;;4937860;29;20052;-81
2022/10/24 02:06:38;;;;;;;4.63;1.20;;;15.40;99.90;;;;;;4936403;29;20044;-84
2022/10/24 02:09:12;;;;;;;7.90;1.67;;;15.00;99.90;;;;;;4931201;29;20043;-82
2022/10/24 02:11:39;;;;;;;7.13;2.17;;;15.50;99.90;;;;;;4918784;29;20080;-83
2022/10/24 02:14:10;;;;;;;4.95;2.10;;;15.00;99.90;;;;;;4943244;29;20071;-82
2022/10/24 02:16:36;;;;;;;7.78;1.80;;;15.40;99.90;;;;;;4947294;29;20515;-83
2022/10/24 02:19:03;;;;;;;5.38;2.78;;;15.10;99.90;;;;;;4956383;29;20082;-83
2022/10/24 02:21:48;;;;;;;7.82;2.67;;;15.10;99.90;;;;;;4955667;28;20417;-82
2022/10/24 02:24:28;;;;;;;3.65;1.88;;;15.00;99.90;;;;;;4938293;29;20129;-82
2022/10/24 02:27:13;;;;;;;11.48;2.40;;;15.30;99.90;;;;;;4955832;29;20122;-82
2022/10/24 02:30:01;;;;;;;8.18;2.03;;;15.00;99.90;;;;;;4955894;29;20050;-81
2022/10/24 02:32:32;;;;;;;7.45;2.47;;;15.40;99.90;;;;;;4957555;29;20130;-80
2022/10/24 02:34:59;;;;;;;8.63;2.20;;;15.40;99.90;;;;;;4940204;29;20046;-85
2022/10/24 02:37:27;;;;;;;7.93;2.65;;;15.30;99.90;;;;;;4940252;29;20062;-80
2022/10/24 02:39:58;;;;;;;13.52;3.38;;;15.00;99.90;;;;;;4957973;29;20043;-76
2022/10/24 02:42:30;;;;;;;6.55;2.65;;;15.30;99.90;;;;;;4972636;28;20031;-81
2022/10/24 02:44:57;;;;;;;4.50;2.17;;;15.20;99.90;;;;;;4963078;29;20422;-83
2022/10/24 02:47:25;;;;;;;6.93;2.50;;;15.20;99.90;;;;;;4957543;29;20050;-83
2022/10/24 02:49:53;;;;;;;4.35;1.42;;;15.00;99.90;;;;;;4966680;29;20043;-84
2022/10/24 02:52:20;;;;;;;7.70;1.58;;;15.40;99.90;;;;;;4964516;29;20054;-84
2022/10/24 02:54:46;;;;;;;7.25;1.60;;;15.10;99.90;;;;;;4962226;29;20055;-82
2022/10/24 02:57:14;;;;;;;8.75;2.15;;;15.30;99.90;;;;;;4936014;29;20043;-77
2022/10/24 02:59:40;;;;;;;5.20;1.92;;;15.20;99.90;;;;;;4969061;28;20099;-81
2022/10/24 03:02:05;;;;;;;11.43;2.65;;;15.10;99.90;;;;;;4965259;29;20075;-79
2022/10/24 03:04:32;;;;;;;5.85;2.47;;;15.20;99.90;;;;;;4964667;29;20130;-82
2022/10/24 03:06:58;;;;;;;9.90;2.60;;;15.40;99.90;;;;;;4960242;29;20055;-80
2022/10/24 03:09:23;;;;;;;8.25;1.75;;;15.40;99.90;;;;;;4961085;29;20660;-82
2022/10/24 03:11:50;;;;;;;9.65;2.00;;;15.30;99.90;;;;;;4957988;29;20047;-83
2022/10/24 03:14:16;;;;;;;6.55;2.15;;;15.30;99.90;;;;;;4941440;29;20706;-84
2022/10/24 03:16:41;;;;;;;7.35;2.15;;;15.10;99.90;;;;;;4967229;28;20044;-78
2022/10/24 03:19:07;;;;;;;9.98;2.70;;;15.10;99.90;;;;;;4957216;28;20105;-83
2022/10/24 03:21:33;;;;;;;6.03;1.73;;;15.10;99.90;;;;;;4937902;29;20198;-84
2022/10/24 03:23:59;;;;;;;5.18;2.47;;;15.00;99.90;;;;;;4936451;28;20486;-83
2022/10/24 03:26:25;;;;;;;5.50;2.15;;;15.00;99.90;;;;;;4953798;29;20421;-84
2022/10/24 03:28:50;;;;;;;7.72;2.40;;;15.30;99.90;;;;;;4960032;29;20040;-83
2022/10/24 03:31:16;;;;;;;9.15;2.35;;;15.10;99.90;;;;;;4959883;29;20043;-84
2022/10/24 03:33:42;;;;;;;3.90;1.73;;;15.20;99.90;;;;;;4958245;29;20122;-76
2022/10/24 03:36:09;;;;;;;9.98;2.42;;;15.20;99.90;;;;;;4940633;29;20044;-83
2022/10/24 03:38:35;;;;;;;8.02;2.90;;;15.20;99.90;;;;;;4952956;29;20182;-81
2022/10/24 03:41:01;;;;;;;10.07;2.30;;;15.30;99.90;;;;;;4941823;29;20106;-83
2022/10/24 03:43:27;;;;;;;5.78;1.60;;;15.20;99.90;;;;;;4977623;28;20047;-83
2022/10/24 03:45:52;;;;;;;8.65;2.55;;;15.20;99.90;;;;;;4951355;29;20043;-83
2022/10/24 03:48:18;;;;;;;7.68;1.83;;;15.30;99.90;;;;;;4967070;29;20106;-82
2022/10/24 03:50:44;;;;;;;8.93;2.13;;;15.40;99.90;;;;;;4960646;29;20051;-83
2022/10/24 03:53:10;;;;;;;10.35;2.40;;;15.10;99.90;;;;;;4961910;29;20039;-85
2022/10/24 03:55:36;;;;;;;2.45;1.30;;;15.10;99.90;;;;;;4969442;28;20047;-83
2022/10/24 03:58:01;;;;;;;3.17;1.20;;;15.30;99.90;;;;;;4972461;29;20064;-80
2022/10/24 04:00:28;;;;;;;7.03;2.38;;;15.30;99.90;;;;;;4954051;29;20043;-82
2022/10/24 04:02:54;;;;;;;3.25;1.50;;;15.10;99.90;;;;;;4933760;29;20058;-85
2022/10/24 04:05:20;;;;;;;13.85;2.28;;;15.20;99.90;;;;;;4961232;29;20055;-84
2022/10/24 04:07:47;;;;;;;7.35;1.90;;;15.10;99.90;;;;;;4930958;29;20057;-83
2022/10/24 04:10:13;;;;;;;6.75;2.03;;;15.20;99.90;;;;;;4962010;29;20047;-83
2022/10/24 04:12:38;;;;;;;13.07;2.65;;;15.10;99.90;;;;;;4959418;29;20040;-84
2022/10/24 04:15:05;;;;;;;13.55;2.92;;;15.00;99.90;;;;;;4926264;29;20058;-84
2022/10/24 04:17:31;;;;;;;9.48;2.00;;;14.80;99.90;;;;;;4956299;28;20071;-84
2022/10/24 04:19:56;;;;;;;12.18;2.70;;;14.90;99.90;;;;;;4965579;29;20043;-82
2022/10/24 04:22:25;;;;;;;5.63;1.88;;;14.90;99.90;;;;;;4963276;29;20128;-83
2022/10/24 04:24:51;;;;;;;7.07;2.17;;;14.70;99.90;;;;;;4927723;29;20494;-84
2022/10/24 04:27:17;;;;;;;4.45;1.50;;;14.70;99.90;;;;;;4947515;29;20066;-78
2022/10/24 04:29:43;;;;;;;6.43;2.10;;;14.90;99.90;;;;;;4945915;29;20573;-83
2022/10/24 04:32:09;;;;;;;7.07;1.85;;;14.90;99.90;;;;;;4954890;29;20043;-79
2022/10/24 04:34:35;;;;;;;9.73;2.67;;;14.70;99.90;;;;;;4945079;29;20051;-84
2022/10/24 04:37:03;;;;;;;9.73;2.38;;;14.80;99.90;;;;;;4945761;29;20043;-80
2022/10/24 04:39:29;;;;;;;6.38;1.60;;;14.80;99.90;;;;;;4960249;29;20055;-82
2022/10/24 04:42:04;;;;;;;9.95;1.73;;;14.80;99.90;;;;;;4961577;29;20061;-84
2022/10/24 04:44:30;;;;;;;8.60;2.55;;;14.80;99.90;;;;;;4942777;29;20105;-84
2022/10/24 04:46:57;;;;;;;7.90;2.63;;;14.60;99.90;;;;;;4908995;29;20044;-83
2022/10/24 04:49:22;;;;;;;9.50;2.88;;;14.70;99.90;;;;;;4925390;29;20095;-84
2022/10/24 04:51:48;;;;;;;6.28;2.00;;;14.60;99.90;;;;;;4929450;29;20043;-83
2022/10/24 04:54:14;;;;;;;8.52;2.72;;;14.60;99.90;;;;;;4959798;29;20692;-84
2022/10/24 04:56:40;;;;;;;6.07;1.85;;;14.80;99.90;;;;;;4960330;29;20043;-84
2022/10/24 04:59:05;;;;;;;6.32;1.67;;;14.80;99.90;;;;;;4960876;29;20058;-83
2022/10/24 05:01:32;;;;;;;4.95;1.33;;;14.60;99.90;;;;;;4960608;29;21074;-84
2022/10/24 05:03:58;;;;;;;7.45;2.15;;;14.70;99.90;;;;;;4941084;28;20073;-83
2022/10/24 05:06:24;;;;;;;9.60;2.17;;;14.50;99.90;;;;;;4954556;28;20122;-81
2022/10/24 05:08:50;;;;;;;7.72;1.95;;;14.50;99.90;;;;;;4960948;29;20043;-84
2022/10/24 05:11:16;;;;;;;8.27;1.40;;;14.60;99.90;;;;;;4941500;29;20414;-84
2022/10/24 05:13:41;;;;;;;7.93;1.83;;;14.60;99.90;;;;;;4959290;29;20047;-76
2022/10/24 05:16:07;;;;;;;9.15;2.20;;;14.60;99.90;;;;;;4940853;29;20062;-82
2022/10/24 05:18:33;;;;;;;8.45;1.75;;;14.60;99.90;;;;;;4961362;29;20043;-85
2022/10/24 05:21:00;;;;;;;3.85;1.52;;;14.60;99.90;;;;;;4941238;29;20402;-84
2022/10/24 05:23:26;;;;;;;11.15;1.55;;;14.60;99.90;;;;;;4962220;28;20043;-83
2022/10/24 05:25:52;;;;;;;5.18;1.40;;;14.70;99.90;;;;;;4946843;29;20411;-84
2022/10/24 05:28:18;;;;;;;7.85;1.63;;;14.70;99.90;;;;;;4934269;29;20423;-78
2022/10/24 05:30:45;;;;;;;5.63;1.67;;;14.70;99.90;;;;;;4957256;28;20050;-81
2022/10/24 05:33:11;;;;;;;5.97;1.20;;;14.80;99.90;;;;;;4947928;29;20054;-82
2022/10/24 05:35:37;;;;;;;8.80;1.80;;;14.80;99.90;;;;;;4940295;29;20390;-81
2022/10/24 05:38:03;;;;;;;6.22;1.58;;;14.70;99.90;;;;;;4935915;29;20451;-80
2022/10/24 05:40:29;;;;;;;10.25;2.17;;;14.80;99.90;;;;;;4935551;29;20059;-80
2022/10/24 05:42:55;;;;;;;6.47;2.17;;;14.70;99.90;;;;;;4941933;29;20062;-80
2022/10/24 05:45:21;;;;;;;5.20;1.17;;;14.80;99.90;;;;;;4949451;29;20047;-80
2022/10/24 05:47:47;;;;;;;7.50;1.02;;;14.80;99.90;;;;;;4953075;28;20051;-81
2022/10/24 05:50:13;;;;;;;10.65;2.63;;;14.80;99.90;;;;;;4954373;29;20109;-79
2022/10/24 05:52:41;;;;;;;8.15;2.35;;;14.90;99.90;;;;;;4937958;29;20090;-77
2022/10/24 05:55:14;;;;;;;6.97;1.85;;;14.90;99.90;;;;;;4934622;29;20087;-77
2022/10/24 05:57:40;;;;;;;4.97;1.60;;;14.90;99.90;;;;;;4953800;29;20126;-79
2022/10/24 06:00:10;;;;;;;4.47;1.08;;;14.90;99.90;;;;;;4953164;29;20122;-78
2022/10/24 06:02:35;;;;;;;7.35;1.70;;;15.00;99.90;;;;;;4952762;29;20475;-77
2022/10/24 06:05:01;;;;;;;2.85;1.00;;;14.80;99.90;;;;;;4950307;29;20051;-77
2022/10/24 06:07:27;;;;;;;5.55;1.55;;;14.80;99.90;;;;;;4952782;29;20446;-77
2022/10/24 06:09:53;;;;;;;19.40;3.30;;;14.80;99.90;;;;;;4952246;28;20050;-78
2022/10/24 06:12:19;;;;;;;12.98;2.45;;;14.80;99.90;;;;;;4935069;29;20422;-77
2022/10/24 06:14:45;;;;;;;8.18;1.60;;;14.70;99.90;;;;;;4947588;28;20063;-78
2022/10/24 06:17:11;;;;;;;10.68;2.28;;;14.70;99.90;;;;;;4948175;28;20047;-77
2022/10/24 06:19:38;;;;;;;13.70;1.95;;;14.70;99.90;;;;;;4951228;28;20583;-77
2022/10/24 06:22:05;;;;;;;6.30;1.48;;;14.70;99.90;;;;;;4938454;28;20046;-78
2022/10/24 06:24:36;;;;;;;6.88;2.00;;;14.60;99.90;;;;;;4955711;28;20403;-80
2022/10/24 06:27:03;;;;;;;12.15;1.63;;;14.60;99.90;;;;;;4966196;28;20149;-80
2022/10/24 06:29:29;;;;;;;13.00;2.10;;;14.70;99.90;;;;;;4953205;29;20114;-79
2022/10/24 06:31:55;;;;;;;31.90;2.20;;;14.70;99.90;;;;;;4968540;28;20050;-80
2022/10/24 06:34:21;;;;;;;9.10;1.17;;;14.70;99.90;;;;;;4956223;28;20047;-78
2022/10/24 06:36:46;;;;;;;8.77;1.42;;;14.80;99.90;;;;;;4953413;29;20054;-80
2022/10/24 06:39:12;;;;;;;5.18;0.82;;;14.90;99.90;;;;;;4952842;29;20044;-78
2022/10/24 06:41:38;;;;;;;7.93;1.10;;;15.00;99.90;;;;;;4936333;29;20105;-79
2022/10/24 06:44:04;;;;;;;6.53;1.35;;;14.90;99.90;;;;;;4946035;29;20231;-80
2022/10/24 06:46:30;;;;;;;10.98;1.33;;;14.90;99.90;;;;;;4941645;29;20392;-79
2022/10/24 06:48:56;;;;;;;7.78;1.60;;;15.00;99.90;;;;;;4957922;29;20044;-81
2022/10/24 06:51:23;;;;;;;12.00;1.73;;;15.00;99.90;;;;;;4957897;28;20050;-79
2022/10/24 06:53:49;;;;;;;6.07;1.02;;;15.10;99.90;;;;;;4957210;29;20039;-79
2022/10/24 06:56:16;;;;;;;7.72;1.75;;;15.10;99.90;;;;;;4954050;29;20082;-79
2022/10/24 06:58:43;;;;;;;6.32;1.75;;;15.10;99.90;;;;;;4955375;29;20039;-79
2022/10/24 07:01:15;;;;;;;11.63;1.50;;;15.10;99.90;;;;;;4956371;29;20090;-81
2022/10/24 07:03:41;;;;;;;5.18;1.40;;;15.20;99.90;;;;;;4948882;29;20497;-78
2022/10/24 07:06:19;;;;;;;7.15;0.90;;;15.10;99.90;;;;;;4936907;29;20039;-80
2022/10/24 07:08:45;;;;;;;2.53;1.20;;;15.20;99.90;;;;;;4957669;28;20046;-79
2022/10/24 07:11:14;;;;;;;6.97;1.83;;;15.30;99.90;;;;;;4973394;28;20046;-78
2022/10/24 07:13:40;;;;;;;4.68;1.02;;;15.20;99.90;;;;;;4964097;28;20553;-79
2022/10/24 07:16:06;;;;;;;4.65;1.00;;;15.30;99.90;;;;;;4937797;29;20078;-81
2022/10/24 07:18:32;;;;;;;7.55;1.52;;;15.30;99.90;;;;;;4928655;29;20109;-80
2022/10/24 07:21:07;;;;;;;5.35;0.90;;;15.40;99.90;;;;;;4934828;29;20040;-81
2022/10/24 07:23:34;;;;;;;28.77;2.03;;;15.40;99.90;;;;;;4935112;29;20403;-81
2022/10/24 07:26:04;;;;;;;6.78;1.20;;;15.30;99.90;;;;;;4955460;29;20071;-80
2022/10/24 07:28:31;;;;;;;5.70;1.15;;;15.40;99.90;;;;;;4938858;29;20051;-81
2022/10/24 07:30:57;;;;;;;8.57;1.27;;;15.40;99.90;;;;;;4952603;29;20043;-79
2022/10/24 07:33:23;;;;;;;10.02;1.67;;;15.50;99.90;;;;;;4942781;29;20044;-81
2022/10/24 07:35:52;;;;;;;5.82;0.82;;;15.50;99.90;;;;;;4963142;28;20050;-81
2022/10/24 07:38:18;;;;;;;6.63;1.58;;;15.50;99.90;;;;;;4945652;28;20086;-79
2022/10/24 07:40:45;;;;;;;8.60;1.58;;;15.40;99.90;;;;;;4952843;28;20047;-80
2022/10/24 07:43:10;;;;;;;8.98;1.05;;;15.50;99.90;;;;;;4952830;29;20047;-81
2022/10/24 07:45:40;;;;;;;6.47;1.10;;;15.60;99.90;;;;;;4941515;29;20091;-78
2022/10/24 07:48:06;;;;;;;7.55;1.52;;;15.60;99.90;;;;;;4957584;29;20047;-81
2022/10/24 07:50:44;;;;;;;12.32;1.25;;;15.60;99.90;;;;;;4938301;29;20051;-76
2022/10/24 07:53:11;;;;;;;6.55;1.90;;;15.50;99.90;;;;;;4954007;29;20043;-77
2022/10/24 07:55:38;;;;;;;10.10;1.77;;;15.70;99.90;;;;;;4946707;29;20213;-79
2022/10/24 07:58:04;;;;;;;3.55;1.00;;;15.60;99.90;;;;;;4937986;29;20059;-79
2022/10/24 08:00:30;;;;;;;11.05;2.97;;;15.50;99.90;;;;;;4936983;29;20434;-79
2022/10/24 08:02:56;;;;;;;8.40;1.23;;;15.70;99.90;;;;;;4925297;29;20051;-79
2022/10/24 08:05:22;;;;;;;1.77;0.80;;;15.70;99.90;;;;;;4957363;29;20063;-77
2022/10/24 08:07:48;;;;;;;8.52;1.85;;;15.60;99.90;;;;;;4957229;29;20047;-80
2022/10/24 08:10:13;;;;;;;8.13;2.65;;;15.60;99.90;;;;;;4939991;28;20085;-81
2022/10/24 08:12:39;;;;;;;8.77;1.88;;;15.70;99.90;;;;;;4959695;28;20043;-77
2022/10/24 08:15:06;;;;;;;9.32;2.47;;;15.50;99.90;;;;;;4961967;29;20071;-78
2022/10/24 08:17:32;;;;;;;5.50;1.70;;;15.50;99.90;;;;;;4957487;29;20051;-79
2022/10/24 08:19:57;;;;;;;7.88;2.03;;;15.60;99.90;;;;;;4957679;29;20039;-81
2022/10/24 08:22:23;;;;;;;8.93;1.92;;;15.40;99.90;;;;;;4951788;29;20051;-75
2022/10/24 08:24:49;;;;;;;4.13;1.42;;;15.50;99.90;;;;;;4937677;29;20131;-82
2022/10/24 08:27:18;;;;;;;7.60;2.33;;;15.50;99.90;;;;;;4955187;28;20101;-82
2022/10/24 08:29:43;;;;;;;4.28;1.00;;;15.60;99.90;;;;;;4957412;28;20047;-81
2022/10/24 08:32:09;;;;;;;6.03;1.10;;;15.60;99.90;;;;;;4938125;29;20054;-80
2022/10/24 08:34:37;;;;;;;5.53;0.90;;;15.70;99.90;;;;;;4956983;29;20111;-82
2022/10/24 08:37:03;;;;;;;5.90;1.17;;;15.70;99.90;;;;;;4941509;29;20055;-83
2022/10/24 08:39:28;;;;;;;6.25;1.27;;;15.70;99.90;;;;;;4939691;29;20110;-78
2022/10/24 08:41:59;;;;;;;3.10;1.17;;;15.70;99.90;;;;;;4957297;28;20118;-82
2022/10/24 08:44:38;;;;;;;5.72;2.10;;;15.80;99.90;;;;;;4953931;29;20047;-81
2022/10/24 08:47:30;;;;;;;8.40;1.77;;;15.60;99.90;;;;;;4939793;29;20046;-81
2022/10/24 08:50:04;;;;;;;9.85;2.08;;;15.80;99.90;;;;;;4939268;29;20050;-81
2022/10/24 08:52:32;;;;;;;17.38;1.85;;;15.70;99.90;;;;;;4956283;29;20047;-79
2022/10/24 08:55:05;;;;;;;7.53;1.05;;;15.50;99.90;;;;;;4937392;29;20386;-80
2022/10/24 08:57:33;;;;;;;10.38;1.80;;;15.50;99.90;;;;;;4920494;29;20110;-80
2022/10/24 09:00:06;;;;;;;7.53;1.30;;;15.70;99.90;;;;;;4944092;29;20079;-80
2022/10/24 09:02:36;;;;;;;8.00;1.83;;;15.80;99.90;;;;;;4933940;29;20114;-80
2022/10/24 09:05:21;;;;;;;;;;;15.70;99.90;;;;;;4929349;29;20099;-80
2022/10/24 09:07:51;;;;;;;6.85;1.73;;;15.70;99.90;;;;;;4935371;29;19923;-81
2022/10/24 09:10:22;;;;;;;7.97;1.77;;;15.70;99.90;;;;;;4964474;29;20059;-77
2022/10/24 09:12:48;;;;;;;9.43;1.58;;;15.70;99.90;;;;;;4943859;29;20102;-81
2022/10/24 09:15:19;;;;;;;7.07;1.83;;;15.80;99.90;;;;;;4953013;28;20047;-81
2022/10/24 09:17:47;;;;;;;3.78;1.25;;;15.90;99.90;;;;;;4962953;28;20122;-83
2022/10/24 09:20:28;;;;;;;8.73;1.35;;;16.00;99.90;;;;;;4959261;29;20091;-78
2022/10/24 09:23:00;;;;;;;10.52;2.35;;;15.90;99.90;;;;;;4959592;29;20047;-77
2022/10/24 09:25:35;;;;;;;6.80;1.55;;;15.90;99.90;;;;;;4979949;28;20062;-81
2022/10/24 09:28:04;;;;;;;9.02;2.45;;;16.00;99.90;;;;;;4960826;29;20039;-80
2022/10/24 09:30:30;;;;;;;5.10;1.50;;;16.20;99.90;;;;;;4950307;29;20047;-84
2022/10/24 09:33:11;;;;;;;3.92;1.52;;;16.30;99.90;;;;;;4946371;29;20116;-83
2022/10/24 09:35:37;;;;;;;14.27;2.38;;;16.30;99.90;;;;;;4943065;29;20417;-86
2022/10/24 09:38:21;;;;;;;9.20;1.35;;;16.20;99.90;;;;;;4958045;29;20043;-86
2022/10/24 09:40:52;;;;;;;9.57;1.55;;;16.00;99.90;;;;;;4948730;29;20075;-86
2022/10/24 09:43:32;;;;;;;7.53;1.75;;;16.00;99.90;;;;;;4947665;29;20094;-88
2022/10/24 09:46:06;;;;;;;17.13;2.90;;;16.00;99.90;;;;;;4930768;29;20043;-85
2022/10/24 09:48:43;;;;;;;4.75;1.23;;;15.90;99.90;;;;;;4955847;29;20489;-81
2022/10/24 09:51:24;;;;;;;10.95;1.92;;;16.00;99.90;;;;;;4948108;29;20083;-84
2022/10/24 09:53:59;;;;;;;6.30;1.92;;;15.80;99.90;;;;;;4932717;28;20619;-86
2022/10/24 09:56:39;;;;;;;4.15;1.23;;;15.80;99.90;;;;;;4955986;28;20489;-86
2022/10/24 09:59:42;;;;;;;17.52;3.05;;;15.80;99.90;;;;;;4957278;29;20086;-85
2022/10/24 10:02:23;;;;;;;7.63;0.90;;;15.90;99.90;;;;;;4941127;28;20453;-76
2022/10/24 10:05:13;;;;;;;8.32;1.35;;;16.00;99.90;;;;;;4923028;29;20398;-82
2022/10/24 10:07:47;;;;;;;7.15;1.70;;;16.10;99.90;;;;;;4935171;29;20058;-78
2022/10/24 10:10:31;;;;;;;5.15;1.00;;;16.00;99.90;;;;;;4951691;29;20138;-76
2022/10/24 10:13:03;;;;;;;6.80;0.95;;;16.00;99.90;;;;;;4953176;29;20059;-78
2022/10/24 10:15:44;;;;;;;13.35;1.88;;;15.90;99.90;;;;;;4952737;29;20059;-79
2022/10/24 10:18:37;;;;;;;7.03;1.13;;;15.70;99.90;;;;;;4943281;28;20129;-78
2022/10/24 10:21:08;;;;;;;7.00;1.10;;;15.60;99.90;;;;;;4949630;28;20043;-75
2022/10/24 10:23:46;;;;;;;9.05;1.10;;;15.50;99.90;;;;;;4939264;29;20050;-76
2022/10/24 10:26:18;;;;;;;12.27;3.42;;;15.30;99.90;;;;;;4951796;29;20528;-79
2022/10/24 10:29:06;;;;;;;7.97;1.73;;;15.20;99.90;;;;;;4937494;29;20048;-79
2022/10/24 10:31:42;;;;;;;7.88;1.70;;;15.20;99.90;;;;;;4952791;29;20047;-76
2022/10/24 10:34:35;;;;;;;6.50;1.08;;;15.00;99.90;;;;;;4953192;29;20043;-76
2022/10/24 10:37:21;;;;;;;10.20;1.98;;;15.00;99.90;;;;;;4936385;29;20051;-75
2022/10/24 10:39:47;;;;;;;7.35;0.95;;;14.90;99.90;;;;;;4951622;29;20505;-76
2022/10/24 10:42:13;;;;;;;8.73;2.08;;;14.90;99.90;;;;;;4944073;29;20047;-79
2022/10/24 10:45:18;;;;;;;6.60;1.67;;;14.90;99.90;;;;;;4952743;29;20084;-78
2022/10/24 10:48:11;;;;;;;6.38;1.73;;;15.30;99.90;;;;;;4936214;29;20051;-76
2022/10/24 10:50:58;;;;;;;11.45;2.75;;;15.60;99.90;;;;;;4948261;29;20055;-79
2022/10/24 10:53:37;;;;;;;7.60;1.90;;;15.70;99.90;;;;;;4947374;29;20447;-77
2022/10/24 10:56:06;;;;;;;5.93;1.45;;;15.60;99.90;;;;;;4951902;29;20406;-80
2022/10/24 10:58:49;;;;;;;8.52;1.42;;;15.60;99.90;;;;;;4931892;29;21046;-78
2022/10/24 11:01:56;;;;;;;6.55;1.13;;;15.70;99.90;;;;;;4943539;29;20109;-77
2022/10/24 11:04:42;;;;;;;10.32;1.85;;;15.80;99.90;;;;;;4925379;28;20117;-78
2022/10/24 11:07:16;;;;;;;12.23;1.80;;;15.70;99.90;;;;;;4943644;29;20502;-76
2022/10/24 11:09:49;;;;;;;7.80;1.48;;;15.70;99.90;;;;;;4951761;28;20035;-76
2022/10/24 11:12:25;;;;;;;17.20;3.22;;;15.90;99.90;;;;;;4952465;29;20126;-76
2022/10/24 11:14:58;;;;;;;5.85;1.52;;;15.80;99.90;;;;;;4955859;28;20051;-78
2022/10/24 11:17:29;;;;;;;9.50;3.58;;;15.90;99.90;;;;;;4947948;29;20042;-78
2022/10/24 11:20:18;;;;;;;8.15;2.03;;;16.00;99.90;;;;;;4951874;28;20414;-78
2022/10/24 11:23:09;;;;;;;6.55;1.00;;;15.80;99.90;;;;;;4938169;29;20043;-77
2022/10/24 11:25:58;;;;;;;8.48;2.22;;;15.70;99.90;;;;;;4950428;29;20043;-77
2022/10/24 11:28:52;;;;;;;12.48;2.38;;;15.70;99.90;;;;;;4950492;29;20459;-77
2022/10/24 11:31:22;;;;;;;7.53;1.90;;;15.60;99.90;;;;;;4951376;28;20430;-77
2022/10/24 11:34:06;;;;;;;15.85;3.05;;;15.60;99.90;;;;;;4934579;29;20054;-80
2022/10/24 11:36:44;;;;;;;7.95;1.35;;;15.60;99.90;;;;;;4948615;29;20058;-79
2022/10/24 11:39:43;;;;;;;7.60;1.42;;;15.60;99.90;;;;;;4932376;29;20398;-77
2022/10/24 11:42:33;;;;;;;7.18;1.40;;;15.50;99.90;;;;;;4934006;28;20047;-80
2022/10/24 11:45:10;;;;;;;9.20;1.20;;;15.50;99.90;;;;;;4950864;28;20075;-78
2022/10/24 11:48:09;;;;;;;10.55;1.40;;;15.60;99.90;;;;;;4948743;28;20479;-76
2022/10/24 11:50:56;;;;;;;8.48;1.50;;;15.80;99.90;;;;;;4941023;29;20047;-78
2022/10/24 11:53:28;;;;;;;8.20;1.15;;;15.80;99.90;;;;;;4919829;29;20134;-78
2022/10/24 11:56:01;;;;;;;4.45;1.30;;;15.90;99.90;;;;;;4950020;29;20048;-77
2022/10/24 11:58:29;;;;;;;6.13;1.50;;;16.10;99.90;;;;;;4950353;29;20039;-77
2022/10/24 12:01:24;;;;;;;8.23;2.25;;;16.10;99.90;;;;;;4931150;29;20129;-76
2022/10/24 12:04:24;;;;;;;8.32;1.80;;;16.10;99.90;;;;;;4909674;29;20098;-80
2022/10/24 12:07:26;;;;;;;7.20;2.85;;;16.00;99.90;;;;;;4951367;29;20047;-79
2022/10/24 12:10:25;;;;;;;5.32;1.48;;;16.20;99.90;;;;;;4949632;29;20097;-79
2022/10/24 12:13:21;;;;;;;9.77;2.50;;;16.30;99.90;;;;;;4947869;29;20058;-79
2022/10/24 12:16:11;;;;;;;15.32;2.40;;;16.10;99.90;;;;;;4943554;28;20053;-78
2022/10/24 12:18:39;;;;;;;10.13;1.13;;;16.10;99.90;;;;;;4953456;29;20048;-78
2022/10/24 12:21:08;;;;;;;8.02;2.42;;;16.00;99.90;;;;;;4920259;29;20307;-79
2022/10/24 12:23:34;;;;;;;4.85;1.38;;;16.00;99.90;;;;;;4930314;29;20051;-79
2022/10/24 12:26:18;;;;;;;5.35;1.00;;;15.90;99.90;;;;;;4953751;29;20130;-80
2022/10/24 12:28:55;;;;;;;12.85;1.65;;;16.00;99.90;;;;;;4942149;29;20040;-79
2022/10/24 12:31:36;;;;;;;16.48;2.05;;;16.10;99.90;;;;;;4942366;29;20055;-81
2022/10/24 12:34:26;;;;;;;;;;;16.10;99.90;;;;;;4945230;29;20053;-83
2022/10/24 12:37:03;;;;;;;4.78;1.30;;;16.30;99.90;;;;;;4948189;29;19999;-81
2022/10/24 12:39:30;;;;;;;6.00;2.22;;;16.60;99.90;;;;;;4937516;29;20055;-80
2022/10/24 12:41:57;;;;;;;8.80;2.17;;;16.40;99.90;;;;;;4951340;28;20047;-80
2022/10/24 12:44:32;;;;;;;4.60;1.08;;;16.40;99.90;;;;;;4954495;29;20051;-78
2022/10/24 12:47:00;;;;;;;6.60;0.90;;;16.50;99.90;;;;;;4954537;29;20066;-78
2022/10/24 12:49:31;;;;;;;4.38;0.85;;;16.30;99.90;;;;;;4951654;29;20043;-78
2022/10/24 12:51:57;;;;;;;5.50;0.90;;;16.40;99.90;;;;;;4944250;29;20110;-79
2022/10/24 12:54:38;;;;;;;8.00;1.33;;;16.40;99.90;;;;;;4952353;29;20039;-78
2022/10/24 12:57:04;;;;;;;6.25;1.67;;;16.30;99.90;;;;;;4954353;29;20043;-79
2022/10/24 12:59:32;;;;;;;11.02;1.85;;;16.20;99.90;;;;;;4936201;29;20039;-78
2022/10/24 13:02:35;;;;;;;8.80;2.03;;;16.30;99.90;;;;;;4938802;29;20050;-78
2022/10/24 13:05:37;;;;;;;7.95;1.40;;;16.30;99.90;;;;;;4952644;28;20043;-78
2022/10/24 13:08:29;;;;;;;9.40;1.48;;;16.30;99.90;;;;;;4954162;28;20050;-80
2022/10/24 13:11:22;;;;;;;6.13;1.10;;;16.30;99.90;;;;;;4945978;29;20062;-79